Time;durP1;ratioP1;P1;durP2;ratioP2;P2;SDS_P1;SDS_P2;PMS_P1;PMS_P2;Temp;Humidity;BMP_temperature;BMP_pressure;BME280_temperature;BME280_humidity;BME280_pressure;Samples;Min_cycle;Max_cycle;Signal;HPM_P1;HPM_P2
2022/05/18 00:01:35;;;;;;;11.10;6.63;;;17.10;99.90;;;;;;4882851;29;20657;-73
2022/05/18 00:04:19;;;;;;;8.47;6.03;;;17.00;99.90;;;;;;4893735;29;20195;-74
2022/05/18 00:07:03;;;;;;;6.20;5.37;;;17.00;99.90;;;;;;4905921;29;20198;-74
2022/05/18 00:09:49;;;;;;;7.53;5.83;;;17.10;99.90;;;;;;4912298;29;20573;-72
2022/05/18 00:12:33;;;;;;;9.10;5.90;;;17.00;99.90;;;;;;4883052;29;20183;-73
2022/05/18 00:15:20;;;;;;;7.53;5.87;;;17.00;99.90;;;;;;4882977;29;20305;-73
2022/05/18 00:18:05;;;;;;;7.37;5.97;;;17.00;99.90;;;;;;4882865;29;20259;-73
2022/05/18 00:20:49;;;;;;;9.47;6.20;;;17.00;99.90;;;;;;4912702;29;20224;-72
2022/05/18 00:23:34;;;;;;;7.90;6.13;;;16.90;99.90;;;;;;4901794;29;20179;-73
2022/05/18 00:26:19;;;;;;;10.10;6.70;;;16.90;99.90;;;;;;4900119;29;20304;-73
2022/05/18 00:29:03;;;;;;;11.53;6.57;;;16.90;99.90;;;;;;4901577;29;20223;-73
2022/05/18 00:31:47;;;;;;;8.40;5.77;;;16.90;99.90;;;;;;4901516;29;20179;-72
2022/05/18 00:34:31;;;;;;;10.57;6.37;;;16.80;99.90;;;;;;4901032;29;20203;-73
2022/05/18 00:37:15;;;;;;;9.77;5.90;;;16.90;99.90;;;;;;4916673;29;20211;-72
2022/05/18 00:39:59;;;;;;;11.00;6.30;;;16.80;99.90;;;;;;4916986;29;20190;-72
2022/05/18 00:42:43;;;;;;;8.13;6.47;;;16.80;99.90;;;;;;4912502;29;20207;-72
2022/05/18 00:45:28;;;;;;;8.50;6.10;;;16.80;99.90;;;;;;4918562;29;20224;-73
2022/05/18 00:48:12;;;;;;;6.90;5.60;;;16.80;99.90;;;;;;4886017;29;20227;-73
2022/05/18 00:51:00;;;;;;;11.17;6.20;;;16.80;99.90;;;;;;4886137;29;20171;-72
2022/05/18 00:53:59;;;;;;;9.23;6.63;;;16.80;99.90;;;;;;4913946;29;20203;-73
2022/05/18 00:57:00;;;;;;;8.93;6.30;;;16.90;99.90;;;;;;4895194;29;20228;-73
2022/05/18 01:00:10;;;;;;;11.07;6.90;;;16.80;99.90;;;;;;4896279;29;20203;-73
2022/05/18 01:02:59;;;;;;;10.83;6.60;;;16.80;99.90;;;;;;4904906;29;20209;-72
2022/05/18 01:05:45;;;;;;;11.47;6.60;;;16.70;99.90;;;;;;4919053;29;20253;-73
2022/05/18 01:08:36;;;;;;;8.70;6.77;;;16.70;99.90;;;;;;4919162;29;20218;-74
2022/05/18 01:11:21;;;;;;;10.73;6.30;;;16.70;99.90;;;;;;4901946;29;20505;-74
2022/05/18 01:14:12;;;;;;;7.83;6.30;;;16.60;99.90;;;;;;4901794;29;20204;-72
2022/05/18 01:16:57;;;;;;;11.47;6.40;;;16.60;99.90;;;;;;4885631;29;20264;-72
2022/05/18 01:19:46;;;;;;;7.83;6.60;;;16.60;99.90;;;;;;4885601;29;20208;-73
2022/05/18 01:22:39;;;;;;;10.93;6.80;;;16.60;99.90;;;;;;4885611;29;20236;-73
2022/05/18 01:25:57;;;;;;;9.70;6.40;;;16.50;99.90;;;;;;4900063;29;20305;-73
2022/05/18 01:28:50;;;;;;;7.63;6.27;;;16.50;99.90;;;;;;4898859;29;20260;-73
2022/05/18 01:32:03;;;;;;;9.27;6.23;;;16.50;99.90;;;;;;4885741;29;20221;-72
2022/05/18 01:34:47;;;;;;;9.83;5.80;;;16.50;99.90;;;;;;4899865;29;20173;-72
2022/05/18 01:37:31;;;;;;;6.70;5.50;;;16.50;99.90;;;;;;4885528;29;20297;-72
2022/05/18 01:40:54;;;;;;;10.57;5.83;;;16.50;99.90;;;;;;4888239;29;20228;-72
2022/05/18 01:43:54;;;;;;;8.60;6.03;;;16.50;99.90;;;;;;4891038;29;20198;-73
2022/05/18 01:46:38;;;;;;;7.97;6.00;;;16.50;99.90;;;;;;4937467;29;20171;-73
2022/05/18 01:49:22;;;;;;;8.07;6.47;;;16.50;99.90;;;;;;4922834;29;20258;-72
2022/05/18 01:52:10;;;;;;;8.90;6.70;;;16.50;99.90;;;;;;4922165;29;20686;-73
2022/05/18 01:54:54;;;;;;;8.50;6.33;;;16.50;99.90;;;;;;4885334;29;20180;-73
2022/05/18 01:57:38;;;;;;;9.27;6.67;;;16.40;99.90;;;;;;4885550;29;20777;-72
2022/05/18 02:00:22;;;;;;;11.17;6.87;;;16.40;99.90;;;;;;4885028;29;20172;-72
2022/05/18 02:03:06;;;;;;;9.43;6.07;;;16.40;99.90;;;;;;4908641;29;20251;-73
2022/05/18 02:05:52;;;;;;;10.60;6.20;;;16.40;99.90;;;;;;4903870;29;20304;-73
2022/05/18 02:08:36;;;;;;;7.00;6.27;;;16.40;99.90;;;;;;4918055;29;20275;-73
2022/05/18 02:11:21;;;;;;;10.90;6.47;;;16.40;99.90;;;;;;4914887;29;20294;-73
2022/05/18 02:14:04;;;;;;;8.47;5.90;;;16.40;99.90;;;;;;4902043;29;20195;-74
2022/05/18 02:16:49;;;;;;;8.70;6.17;;;16.30;99.90;;;;;;4903556;29;20227;-73
2022/05/18 02:19:33;;;;;;;11.93;6.13;;;16.30;99.90;;;;;;4900454;29;20291;-72
2022/05/18 02:22:18;;;;;;;8.27;6.13;;;16.30;99.90;;;;;;4917828;29;20191;-72
2022/05/18 02:25:02;;;;;;;10.80;6.37;;;16.30;99.90;;;;;;4897912;29;20543;-72
2022/05/18 02:27:47;;;;;;;9.27;6.20;;;16.30;99.90;;;;;;4895573;29;20246;-73
2022/05/18 02:30:32;;;;;;;8.83;5.83;;;16.30;99.90;;;;;;4907828;29;20199;-73
2022/05/18 02:33:17;;;;;;;8.90;6.37;;;16.30;99.90;;;;;;4922306;29;20230;-71
2022/05/18 02:36:02;;;;;;;7.23;6.03;;;16.30;99.90;;;;;;4922209;29;20186;-72
2022/05/18 02:38:46;;;;;;;7.40;5.97;;;16.30;99.90;;;;;;4936286;29;20226;-73
2022/05/18 02:41:30;;;;;;;7.63;6.30;;;16.30;99.90;;;;;;4905119;29;20203;-73
2022/05/18 02:44:18;;;;;;;11.63;6.20;;;16.20;99.90;;;;;;4901147;29;20243;-73
2022/05/18 02:47:03;;;;;;;11.53;7.30;;;16.20;99.90;;;;;;4898429;29;20179;-73
2022/05/18 02:49:47;;;;;;;8.63;6.30;;;16.20;99.90;;;;;;4883197;29;20243;-74
2022/05/18 02:52:31;;;;;;;10.77;5.93;;;16.10;99.90;;;;;;4897947;29;20281;-72
2022/05/18 02:58:19;;;;;;;11.00;6.50;;;16.10;99.90;;;;;;4908675;29;20231;-71
2022/05/18 03:01:09;;;;;;;8.97;5.93;;;16.00;99.90;;;;;;4902488;29;20203;-73
2022/05/18 03:03:55;;;;;;;11.07;6.30;;;16.00;99.90;;;;;;4901954;29;20207;-72
2022/05/18 03:06:39;;;;;;;10.33;6.30;;;16.00;99.90;;;;;;4917071;29;20176;-72
2022/05/18 03:09:23;;;;;;;8.57;6.13;;;16.00;99.90;;;;;;4916733;29;20211;-74
2022/05/18 03:12:08;;;;;;;13.53;5.93;;;16.00;99.90;;;;;;4908135;29;20199;-72
2022/05/18 03:14:52;;;;;;;6.37;5.60;;;15.90;99.90;;;;;;4921542;29;20179;-71
2022/05/18 03:17:37;;;;;;;9.47;5.97;;;15.90;99.90;;;;;;4921148;29;20590;-71
2022/05/18 03:23:33;;;;;;;9.73;5.33;;;15.90;99.90;;;;;;4927522;29;20204;-71
2022/05/18 03:26:20;;;;;;;10.63;5.87;;;15.90;99.90;;;;;;4883169;29;20779;-71
2022/05/18 03:29:04;;;;;;;8.63;6.27;;;15.90;99.90;;;;;;4883289;29;20276;-71
2022/05/18 03:31:48;;;;;;;8.47;6.67;;;15.90;99.90;;;;;;4883297;29;20187;-71
2022/05/18 03:34:33;;;;;;;8.50;6.40;;;15.90;99.90;;;;;;4883459;29;20640;-72
2022/05/18 03:37:18;;;;;;;13.07;6.47;;;15.90;99.90;;;;;;4883438;29;20273;-72
2022/05/18 03:40:02;;;;;;;8.93;6.33;;;15.90;99.90;;;;;;4907867;29;20199;-72
2022/05/18 03:42:47;;;;;;;9.87;6.50;;;15.80;99.90;;;;;;4904309;29;20202;-73
2022/05/18 03:45:33;;;;;;;9.43;6.33;;;15.80;99.90;;;;;;4902099;29;20207;-71
2022/05/18 03:48:19;;;;;;;8.67;6.30;;;15.80;99.90;;;;;;4901778;29;20259;-72
2022/05/18 03:51:05;;;;;;;9.70;6.23;;;15.80;99.90;;;;;;4902645;29;20200;-73
2022/05/18 03:53:49;;;;;;;11.07;7.00;;;15.80;99.90;;;;;;4920903;29;20170;-72
2022/05/18 03:56:33;;;;;;;10.03;6.37;;;15.80;99.90;;;;;;4920584;29;20202;-72
2022/05/18 03:59:18;;;;;;;8.70;6.27;;;15.70;99.90;;;;;;4897633;29;20220;-71
2022/05/18 04:02:02;;;;;;;12.87;6.13;;;15.70;99.90;;;;;;4897457;29;20179;-72
2022/05/18 04:04:46;;;;;;;9.87;6.23;;;15.70;99.90;;;;;;4896197;29;20214;-72
2022/05/18 04:07:30;;;;;;;6.93;5.70;;;15.70;99.90;;;;;;4882922;29;20229;-71
2022/05/18 04:10:17;;;;;;;8.60;5.87;;;15.70;99.90;;;;;;4888883;29;20198;-72
2022/05/18 04:13:02;;;;;;;9.83;6.53;;;15.70;99.90;;;;;;4907025;29;20206;-73
2022/05/18 04:15:46;;;;;;;12.73;7.00;;;15.70;99.90;;;;;;4904268;29;20260;-71
2022/05/18 04:18:32;;;;;;;8.80;6.50;;;15.70;99.90;;;;;;4913110;29;20785;-72
2022/05/18 04:21:16;;;;;;;8.07;6.37;;;15.70;99.90;;;;;;4938960;29;20199;-72
2022/05/18 04:24:00;;;;;;;9.47;6.47;;;15.70;99.90;;;;;;4924529;29;20247;-71
2022/05/18 04:26:44;;;;;;;10.33;6.60;;;15.70;99.90;;;;;;4924349;29;20207;-72
2022/05/18 04:29:28;;;;;;;10.17;6.37;;;15.70;99.90;;;;;;4911915;29;20239;-72
2022/05/18 04:32:12;;;;;;;9.67;6.37;;;15.70;99.90;;;;;;4924030;29;20281;-72
2022/05/18 04:34:56;;;;;;;8.93;6.27;;;15.70;99.90;;;;;;4923148;29;20183;-73
2022/05/18 04:37:40;;;;;;;10.23;6.60;;;15.70;99.90;;;;;;4900633;29;20226;-72
2022/05/18 04:40:25;;;;;;;6.90;6.10;;;15.80;99.90;;;;;;4908270;29;20195;-71
2022/05/18 04:43:09;;;;;;;8.77;6.20;;;15.80;99.90;;;;;;4902231;29;20244;-72
2022/05/18 04:45:55;;;;;;;10.93;6.90;;;15.80;99.90;;;;;;4905015;29;20172;-73
2022/05/18 04:48:41;;;;;;;11.43;6.50;;;15.80;99.90;;;;;;4904942;29;20255;-72
2022/05/18 04:51:25;;;;;;;8.90;6.03;;;15.90;99.90;;;;;;4905026;29;20200;-72
2022/05/18 04:54:09;;;;;;;9.47;6.23;;;15.90;99.90;;;;;;4918748;29;20250;-73
2022/05/18 04:56:53;;;;;;;10.33;6.03;;;15.90;99.90;;;;;;4904938;29;20180;-75
2022/05/18 04:59:37;;;;;;;8.80;5.80;;;16.00;99.90;;;;;;4890057;29;20227;-71
2022/05/18 05:02:22;;;;;;;8.53;6.00;;;16.10;99.90;;;;;;4900326;29;20196;-72
2022/05/18 05:05:09;;;;;;;8.67;6.27;;;16.10;99.90;;;;;;4886410;29;20241;-72
2022/05/18 05:07:54;;;;;;;9.77;5.70;;;16.10;99.90;;;;;;4895386;29;20222;-72
2022/05/18 05:10:38;;;;;;;10.93;5.97;;;16.20;99.90;;;;;;4904173;29;20659;-72
2022/05/18 05:13:23;;;;;;;8.37;6.27;;;16.30;99.90;;;;;;4889502;29;20577;-72
2022/05/18 05:16:09;;;;;;;9.70;5.30;;;16.30;99.90;;;;;;4904712;29;20212;-72
2022/05/18 05:18:53;;;;;;;10.00;5.30;;;16.40;99.90;;;;;;4930609;29;20294;-72
2022/05/18 05:21:42;;;;;;;9.80;5.13;;;16.40;99.90;;;;;;4923626;29;20247;-73
2022/05/18 05:24:26;;;;;;;10.63;5.63;;;16.50;99.90;;;;;;4916842;29;20183;-73
2022/05/18 05:27:10;;;;;;;7.00;5.43;;;16.50;99.90;;;;;;4936253;29;20278;-72
2022/05/18 05:29:54;;;;;;;7.03;4.90;;;16.60;99.90;;;;;;4907848;29;20239;-72
2022/05/18 05:32:39;;;;;;;9.03;5.23;;;16.60;99.90;;;;;;4905020;29;20205;-72
2022/05/18 05:35:25;;;;;;;6.23;4.77;;;16.70;99.90;;;;;;4904423;29;20230;-72
2022/05/18 05:38:10;;;;;;;7.60;5.03;;;16.80;99.90;;;;;;4904429;29;20602;-72
2022/05/18 05:40:55;;;;;;;7.33;5.13;;;16.80;99.90;;;;;;4909377;29;20203;-72
2022/05/18 05:43:41;;;;;;;7.20;4.80;;;16.90;99.90;;;;;;4918468;29;20211;-71
2022/05/18 05:46:27;;;;;;;5.60;4.57;;;17.00;99.90;;;;;;4918549;29;20200;-72
2022/05/18 05:49:12;;;;;;;6.73;4.77;;;17.10;99.90;;;;;;4918160;29;20215;-73
2022/05/18 05:51:56;;;;;;;6.47;4.33;;;17.20;99.90;;;;;;4905542;29;20248;-73
2022/05/18 05:54:41;;;;;;;11.13;5.40;;;17.20;99.90;;;;;;4899137;29;20183;-72
2022/05/18 05:57:28;;;;;;;13.63;5.50;;;17.30;99.90;;;;;;4903521;29;20179;-72
2022/05/18 06:00:13;;;;;;;11.67;5.17;;;17.40;99.90;;;;;;4902709;29;20199;-72
2022/05/18 06:02:57;;;;;;;6.67;4.60;;;17.50;99.90;;;;;;4903791;29;20180;-72
2022/05/18 06:05:41;;;;;;;5.63;3.97;;;17.60;99.90;;;;;;4904376;29;20184;-72
2022/05/18 06:08:26;;;;;;;7.33;4.40;;;17.70;99.90;;;;;;4903589;29;20267;-75
2022/05/18 06:11:11;;;;;;;7.03;3.63;;;17.80;99.90;;;;;;4910948;29;20198;-75
2022/05/18 06:13:55;;;;;;;6.57;4.20;;;17.90;99.90;;;;;;4888823;29;20204;-71
2022/05/18 06:16:40;;;;;;;5.47;3.90;;;18.00;99.90;;;;;;4885120;29;20217;-71
2022/05/18 06:19:24;;;;;;;10.40;3.90;;;18.10;99.90;;;;;;4898829;29;20340;-72
2022/05/18 06:22:08;;;;;;;10.17;4.00;;;18.20;99.90;;;;;;4899498;29;20253;-72
2022/05/18 06:24:52;;;;;;;7.13;3.60;;;18.30;99.90;;;;;;4899353;29;20195;-72
2022/05/18 06:27:36;;;;;;;6.57;3.50;;;18.40;99.90;;;;;;4917109;29;20215;-72
2022/05/18 06:30:21;;;;;;;5.03;3.83;;;18.50;99.90;;;;;;4910082;29;20733;-72
2022/05/18 06:33:05;;;;;;;4.67;3.80;;;18.50;99.90;;;;;;4884566;29;20684;-73
2022/05/18 06:35:51;;;;;;;5.27;3.73;;;18.70;99.90;;;;;;4885289;29;20193;-72
2022/05/18 06:38:35;;;;;;;4.70;3.70;;;18.80;99.90;;;;;;4898076;29;20223;-73
2022/05/18 06:41:22;;;;;;;6.70;3.70;;;18.80;99.90;;;;;;4899848;29;20208;-72
2022/05/18 06:44:06;;;;;;;5.65;3.63;;;18.90;99.90;;;;;;4915796;29;20175;-72
2022/05/18 06:46:51;;;;;;;8.25;4.07;;;19.00;99.90;;;;;;4917821;29;20195;-74
2022/05/18 06:49:35;;;;;;;5.45;4.00;;;19.10;99.90;;;;;;4903526;29;20202;-74
2022/05/18 06:52:19;;;;;;;5.25;3.33;;;19.20;99.90;;;;;;4906450;29;20576;-75
2022/05/18 06:55:04;;;;;;;5.95;3.53;;;19.30;99.90;;;;;;4936339;29;20639;-74
2022/05/18 06:57:48;;;;;;;7.80;3.45;;;19.40;99.90;;;;;;4922384;29;20233;-74
2022/05/18 07:00:32;;;;;;;4.47;3.42;;;19.50;99.90;;;;;;4911086;29;20231;-74
2022/05/18 07:03:17;;;;;;;4.75;3.50;;;19.60;99.90;;;;;;4890951;29;20180;-75
2022/05/18 07:06:02;;;;;;;8.95;3.65;;;19.70;99.90;;;;;;4899690;29;20288;-75
2022/05/18 07:08:47;;;;;;;5.05;3.95;;;19.80;99.90;;;;;;4897900;29;20211;-75
2022/05/18 07:11:31;;;;;;;7.72;3.17;;;19.90;99.90;;;;;;4906420;29;20200;-71
2022/05/18 07:14:18;;;;;;;4.25;3.08;;;20.00;99.90;;;;;;4886296;29;20207;-72
2022/05/18 07:17:02;;;;;;;6.95;3.35;;;20.20;99.90;;;;;;4884474;29;20208;-73
2022/05/18 07:19:46;;;;;;;8.45;3.17;;;20.30;99.90;;;;;;4923810;29;20190;-71
2022/05/18 07:22:30;;;;;;;7.60;3.05;;;20.40;99.90;;;;;;4921612;29;20179;-72
2022/05/18 07:25:14;;;;;;;6.70;3.17;;;20.50;99.90;;;;;;4935534;29;20238;-72
2022/05/18 07:27:58;;;;;;;5.75;3.17;;;20.70;99.90;;;;;;4936388;29;20207;-73
2022/05/18 07:30:42;;;;;;;7.82;3.47;;;20.70;99.90;;;;;;4908596;29;20198;-72
2022/05/18 07:33:27;;;;;;;5.00;2.83;;;20.80;99.90;;;;;;4897599;29;20220;-73
2022/05/18 07:36:11;;;;;;;6.45;3.10;;;20.80;99.90;;;;;;4884157;29;20202;-72
2022/05/18 07:38:55;;;;;;;6.85;3.42;;;20.90;99.90;;;;;;4883395;29;20227;-73
2022/05/18 07:41:39;;;;;;;5.53;3.38;;;21.00;99.90;;;;;;4909496;29;20211;-72
2022/05/18 07:44:24;;;;;;;7.15;3.22;;;21.10;99.90;;;;;;4897084;29;20208;-73
2022/05/18 07:47:09;;;;;;;4.93;3.13;;;21.10;99.90;;;;;;4913740;29;20180;-72
2022/05/18 07:49:53;;;;;;;4.60;3.17;;;21.20;99.90;;;;;;4916318;29;20192;-72
2022/05/18 07:52:37;;;;;;;11.70;3.53;;;21.30;99.90;;;;;;4916515;29;20172;-72
2022/05/18 07:55:22;;;;;;;9.98;3.58;;;21.40;99.90;;;;;;4902747;29;20671;-72
2022/05/18 07:58:08;;;;;;;6.57;3.63;;;21.50;99.90;;;;;;4899881;29;20282;-72
2022/05/18 08:00:53;;;;;;;5.65;3.70;;;21.60;99.90;;;;;;4907791;29;20707;-72
2022/05/18 08:03:37;;;;;;;13.25;4.22;;;21.60;99.90;;;;;;4902932;29;20219;-73
2022/05/18 08:06:21;;;;;;;6.72;4.45;;;21.70;99.90;;;;;;4901821;29;20309;-72
2022/05/18 08:09:05;;;;;;;6.18;3.85;;;21.80;99.90;;;;;;4916479;29;20219;-72
2022/05/18 08:15:06;;;;;;;13.32;3.92;;;22.00;99.90;;;;;;4927941;29;20258;-73
2022/05/18 08:17:50;;;;;;;11.50;3.70;;;22.10;99.90;;;;;;4901752;29;20248;-73
2022/05/18 08:20:39;;;;;;;11.55;4.55;;;22.20;99.90;;;;;;4892702;29;20188;-75
2022/05/18 08:23:25;;;;;;;9.23;3.70;;;22.20;99.90;;;;;;4883302;29;20193;-75
2022/05/18 08:26:10;;;;;;;10.27;4.00;;;22.30;99.90;;;;;;4882667;29;20231;-74
2022/05/18 08:28:54;;;;;;;7.22;4.10;;;22.40;99.90;;;;;;4883564;29;20736;-74
2022/05/18 08:31:39;;;;;;;4.43;3.85;;;22.50;99.90;;;;;;4912148;29;20247;-74
2022/05/18 08:34:23;;;;;;;9.85;3.80;;;22.60;99.90;;;;;;4902096;29;20223;-74
2022/05/18 08:37:07;;;;;;;7.18;3.80;;;22.70;99.90;;;;;;4915967;29;20550;-74
2022/05/18 08:39:51;;;;;;;7.65;4.35;;;22.70;99.90;;;;;;4902147;29;20208;-74
2022/05/18 08:42:35;;;;;;;7.20;4.00;;;22.80;99.90;;;;;;4905334;29;20231;-75
2022/05/18 08:45:20;;;;;;;6.80;3.58;;;22.80;99.90;;;;;;4897329;29;20196;-74
2022/05/18 08:48:36;;;;;;;5.63;4.28;;;22.80;99.90;;;;;;4897511;29;20237;-76
2022/05/18 08:51:33;;;;;;;8.35;3.97;;;22.90;99.90;;;;;;4897912;29;20185;-75
2022/05/18 08:54:40;;;;;;;5.72;4.07;;;23.00;99.90;;;;;;4882803;29;20317;-74
2022/05/18 08:57:35;;;;;;;12.15;4.70;;;23.10;99.90;;;;;;4894799;29;20389;-74
2022/05/18 09:00:25;;;;;;;6.38;3.67;;;23.20;99.90;;;;;;4898402;29;20199;-73
2022/05/18 09:03:31;;;;;;;7.03;4.82;;;23.20;99.90;;;;;;4904865;29;20176;-74
2022/05/18 09:06:28;;;;;;;10.13;5.05;;;23.30;99.90;;;;;;4905445;29;20235;-74
2022/05/18 09:12:19;;;;;;;10.80;5.07;;;23.50;99.90;;;;;;4911697;29;20182;-74
2022/05/18 09:15:07;;;;;;;7.25;3.65;;;23.60;99.90;;;;;;4904813;29;20184;-75
2022/05/18 09:18:04;;;;;;;7.07;3.85;;;23.70;99.90;;;;;;4886810;29;20227;-74
2022/05/18 09:20:59;;;;;;;7.25;3.88;;;23.90;99.90;;;;;;4901229;29;20198;-75
2022/05/18 09:24:07;;;;;;;7.70;3.75;;;23.90;99.90;;;;;;4904900;29;20203;-75
2022/05/18 09:27:11;;;;;;;7.13;2.55;;;24.00;99.90;;;;;;4905346;29;20554;-75
2022/05/18 09:30:19;;;;;;;4.68;2.63;;;24.20;99.90;;;;;;4904602;29;20243;-73
2022/05/18 09:33:29;;;;;;;4.10;2.60;;;24.30;99.90;;;;;;4885676;29;20233;-71
2022/05/18 09:36:46;;;;;;;11.02;2.92;;;24.50;99.90;;;;;;4886633;29;20180;-72
2022/05/18 09:39:36;;;;;;;4.32;2.35;;;24.70;99.90;;;;;;4886857;29;20255;-72
2022/05/18 09:42:25;;;;;;;7.78;2.42;;;24.80;99.90;;;;;;4901146;29;20196;-72
2022/05/18 09:45:18;;;;;;;4.70;2.83;;;24.90;99.90;;;;;;4886336;29;20177;-73
2022/05/18 09:48:09;;;;;;;7.78;2.75;;;25.00;99.90;;;;;;4887860;29;20653;-73
2022/05/18 09:50:55;;;;;;;5.80;2.28;;;25.10;99.90;;;;;;4904387;29;20187;-73
2022/05/18 09:53:41;;;;;;;7.65;2.22;;;25.20;99.90;;;;;;4905410;29;20175;-72
2022/05/18 09:56:32;;;;;;;2.55;2.22;;;25.20;99.90;;;;;;4918602;29;20176;-73
2022/05/18 09:59:24;;;;;;;6.85;2.10;;;25.30;99.90;;;;;;4904207;29;20248;-73
2022/05/18 10:08:34;;;;;;;2.78;2.08;;;25.60;99.90;;;;;;4938754;29;20282;-73
2022/05/18 10:11:23;;;;;;;6.10;2.40;;;25.50;99.90;;;;;;4908131;29;20240;-72
2022/05/18 10:14:11;;;;;;;3.20;2.15;;;25.60;99.90;;;;;;4906193;29;20195;-73
2022/05/18 10:17:08;;;;;;;4.80;2.30;;;25.70;99.90;;;;;;4915691;29;20203;-75
2022/05/18 10:19:58;;;;;;;4.22;1.75;;;25.70;99.90;;;;;;4924693;29;20667;-75
2022/05/18 10:22:45;;;;;;;7.88;2.00;;;25.70;99.90;;;;;;4925346;29;20179;-75
2022/05/18 10:25:39;;;;;;;4.05;1.60;;;25.90;99.90;;;;;;4940538;29;20174;-75
2022/05/18 10:28:27;;;;;;;11.90;3.00;;;25.90;99.90;;;;;;4920140;29;20306;-75
2022/05/18 10:31:25;;;;;;;5.07;2.40;;;25.90;99.90;;;;;;4932760;29;20210;-75
2022/05/18 10:34:25;;;;;;;5.53;2.15;;;26.00;99.90;;;;;;4917546;29;20243;-75
2022/05/18 10:37:11;;;;;;;2.75;2.03;;;26.10;99.90;;;;;;4903329;29;20182;-75
2022/05/18 10:40:18;;;;;;;9.90;2.17;;;26.20;99.90;;;;;;4898680;29;20696;-76
2022/05/18 10:43:33;;;;;;;3.95;2.10;;;26.20;99.90;;;;;;4936407;29;20234;-75
2022/05/18 10:46:26;;;;;;;3.85;1.92;;;26.20;99.90;;;;;;4911567;29;20204;-75
2022/05/18 10:49:29;;;;;;;2.10;1.60;;;26.20;99.90;;;;;;4903776;29;20267;-76
2022/05/18 10:52:19;;;;;;;4.88;2.30;;;26.30;99.90;;;;;;4918482;29;20227;-74
2022/05/18 10:55:14;;;;;;;3.50;2.13;;;26.30;99.90;;;;;;4909445;29;20699;-75
2022/05/18 10:58:05;;;;;;;4.93;1.80;;;26.40;99.90;;;;;;4942322;29;20251;-76
2022/05/18 11:01:01;;;;;;;3.50;1.67;;;26.50;99.90;;;;;;4929305;29;20177;-75
2022/05/18 11:03:59;;;;;;;2.78;2.15;;;26.60;99.90;;;;;;4899708;29;20301;-75
2022/05/18 11:06:43;;;;;;;3.38;1.92;;;26.70;99.90;;;;;;4897637;29;20207;-75
2022/05/18 11:09:32;;;;;;;5.63;2.45;;;26.70;99.90;;;;;;4884620;29;20212;-76
2022/05/18 11:12:42;;;;;;;5.97;1.88;;;26.70;99.90;;;;;;4894868;29;20191;-76
2022/05/18 11:15:45;;;;;;;4.15;2.10;;;26.80;99.90;;;;;;4902711;29;20240;-76
2022/05/18 11:18:32;;;;;;;3.40;2.08;;;27.00;99.90;;;;;;4898771;29;20239;-76
2022/05/18 11:21:52;;;;;;;4.07;2.00;;;27.00;99.90;;;;;;4891422;29;20702;-76
2022/05/18 11:24:49;;;;;;;3.13;1.75;;;27.10;99.90;;;;;;4882985;29;20283;-76
2022/05/18 11:27:46;;;;;;;4.13;2.00;;;27.10;99.90;;;;;;4882526;29;20445;-76
2022/05/18 11:31:08;;;;;;;4.90;1.77;;;27.30;99.90;;;;;;4882051;29;20451;-75
2022/05/18 11:34:13;;;;;;;3.27;1.60;;;27.40;99.90;;;;;;4883456;29;20406;-76
2022/05/18 11:37:21;;;;;;;3.33;1.60;;;27.40;99.90;;;;;;4901585;29;20429;-76
2022/05/18 11:40:08;;;;;;;2.58;1.58;;;27.50;99.90;;;;;;4898169;29;20502;-76
2022/05/18 11:42:56;;;;;;;4.10;1.73;;;27.60;99.90;;;;;;4901858;29;20433;-75
2022/05/18 11:45:53;;;;;;;4.38;1.65;;;27.70;99.90;;;;;;4916761;29;20429;-77
2022/05/18 11:49:01;;;;;;;3.90;1.85;;;27.90;99.90;;;;;;4911815;29;20418;-75
2022/05/18 11:52:29;;;;;;;2.20;1.70;;;27.90;99.90;;;;;;4921653;29;20192;-75
2022/05/18 11:55:14;;;;;;;3.78;1.60;;;27.90;99.90;;;;;;4921551;29;20182;-74
2022/05/18 11:58:13;;;;;;;5.03;1.90;;;27.70;99.90;;;;;;4902632;29;20238;-74
2022/05/18 12:01:04;;;;;;;5.88;1.60;;;27.70;99.90;;;;;;4901166;29;20641;-74
2022/05/18 12:04:10;;;;;;;2.45;1.70;;;27.70;99.90;;;;;;4903890;29;20770;-74
2022/05/18 12:07:20;;;;;;;3.92;1.80;;;27.60;99.90;;;;;;4902585;29;20199;-74
2022/05/18 12:10:24;;;;;;;3.70;1.50;;;27.50;99.90;;;;;;4917389;29;20183;-74
2022/05/18 12:13:13;;;;;;;6.10;1.75;;;27.50;99.90;;;;;;4921245;29;20242;-74
2022/05/18 12:16:03;;;;;;;5.07;1.70;;;27.40;99.90;;;;;;4934806;29;20895;-75
2022/05/18 12:19:21;;;;;;;1.92;1.42;;;27.40;99.90;;;;;;4891709;29;20230;-73
2022/05/18 12:22:11;;;;;;;3.75;1.70;;;27.50;99.90;;;;;;4874490;29;20194;-74
2022/05/18 12:24:55;;;;;;;3.60;1.52;;;27.60;99.90;;;;;;4901893;29;20556;-73
2022/05/18 12:27:39;;;;;;;3.85;1.63;;;27.70;99.90;;;;;;4893176;29;20219;-73
2022/05/18 12:30:26;;;;;;;2.65;1.63;;;27.80;99.90;;;;;;4883591;29;20274;-73
2022/05/18 12:33:12;;;;;;;2.20;1.40;;;27.90;99.90;;;;;;4883451;29;20240;-74
2022/05/18 12:36:02;;;;;;;3.00;1.75;;;28.00;99.90;;;;;;4898802;29;20249;-74
2022/05/18 12:38:56;;;;;;;3.67;1.60;;;28.10;99.90;;;;;;4889360;29;20219;-73
2022/05/18 12:41:48;;;;;;;6.38;1.63;;;28.10;99.90;;;;;;4919391;29;20258;-72
2022/05/18 12:44:54;;;;;;;4.90;1.73;;;28.00;99.90;;;;;;4900365;29;20232;-73
2022/05/18 12:47:41;;;;;;;2.33;1.50;;;28.00;99.90;;;;;;4887123;29;20220;-73
2022/05/18 12:50:39;;;;;;;2.88;1.65;;;28.10;99.90;;;;;;4900755;29;20203;-73
2022/05/18 12:53:26;;;;;;;1.85;1.58;;;28.10;99.90;;;;;;4900152;29;20184;-73
2022/05/18 12:56:20;;;;;;;2.58;1.73;;;28.20;99.90;;;;;;4899927;29;20184;-73
2022/05/18 12:59:11;;;;;;;2.97;1.90;;;28.20;99.90;;;;;;4899831;29;20279;-73
2022/05/18 13:02:04;;;;;;;2.00;1.75;;;28.30;99.90;;;;;;4900080;29;20253;-73
2022/05/18 13:04:49;;;;;;;4.40;1.52;;;28.40;99.90;;;;;;4912011;29;20239;-73
2022/05/18 13:07:35;;;;;;;3.83;1.65;;;28.40;99.90;;;;;;4924175;29;20256;-74
2022/05/18 13:10:27;;;;;;;2.83;1.40;;;28.40;99.90;;;;;;4917446;29;20210;-73
2022/05/18 13:13:25;;;;;;;2.10;1.80;;;28.30;99.90;;;;;;4924128;29;20183;-73
2022/05/18 13:16:09;;;;;;;2.05;1.48;;;28.20;99.90;;;;;;4911328;29;20187;-74
2022/05/18 13:18:59;;;;;;;3.30;2.03;;;28.20;99.90;;;;;;4911364;29;20274;-73
2022/05/18 13:22:23;;;;;;;2.25;1.67;;;28.30;99.90;;;;;;4904546;29;20264;-74
2022/05/18 13:25:10;;;;;;;6.05;1.60;;;28.30;99.90;;;;;;4904884;29;20220;-74
2022/05/18 13:27:56;;;;;;;2.55;1.60;;;28.30;99.90;;;;;;4904809;29;20219;-74
2022/05/18 13:30:44;;;;;;;9.65;2.20;;;28.30;99.90;;;;;;4904349;29;20629;-74
2022/05/18 13:33:38;;;;;;;3.03;1.80;;;28.40;99.90;;;;;;4908551;29;20577;-74
2022/05/18 13:36:35;;;;;;;2.22;1.58;;;28.50;99.90;;;;;;4904281;29;20597;-74
2022/05/18 13:39:39;;;;;;;4.85;1.90;;;28.60;99.90;;;;;;4905594;29;20227;-74
2022/05/18 13:42:29;;;;;;;4.60;1.80;;;28.60;99.90;;;;;;4910141;29;20211;-74
2022/05/18 13:45:15;;;;;;;3.03;1.67;;;28.60;99.90;;;;;;4903107;29;20329;-74
2022/05/18 13:48:00;;;;;;;2.75;1.88;;;28.60;99.90;;;;;;4904100;29;20274;-75
2022/05/18 13:51:03;;;;;;;4.05;1.73;;;28.70;99.90;;;;;;4903958;29;20192;-73
2022/05/18 13:53:58;;;;;;;2.47;1.50;;;28.70;99.90;;;;;;4908886;29;20851;-73
2022/05/18 13:56:46;;;;;;;6.25;1.80;;;28.70;99.90;;;;;;4904132;29;20176;-73
2022/05/18 13:59:37;;;;;;;4.20;1.73;;;28.60;99.90;;;;;;4903765;29;20274;-74
2022/05/18 14:02:31;;;;;;;2.53;1.27;;;28.60;99.90;;;;;;4885335;29;20192;-74
2022/05/18 14:05:16;;;;;;;2.10;1.80;;;28.60;99.90;;;;;;4903952;29;20195;-72
2022/05/18 14:08:25;;;;;;;4.47;1.80;;;28.60;99.90;;;;;;4904069;29;20291;-74
2022/05/18 14:11:12;;;;;;;3.95;2.10;;;28.60;99.90;;;;;;4904864;29;20195;-73
2022/05/18 14:13:59;;;;;;;3.97;1.55;;;28.60;99.90;;;;;;4922705;29;20195;-73
2022/05/18 14:16:47;;;;;;;4.82;1.80;;;28.60;99.90;;;;;;4935772;29;20442;-74
2022/05/18 14:19:41;;;;;;;2.80;1.60;;;28.60;99.90;;;;;;4903175;29;20300;-74
2022/05/18 14:22:29;;;;;;;3.67;1.70;;;28.60;99.90;;;;;;4885504;29;20176;-74
2022/05/18 14:25:17;;;;;;;7.63;1.80;;;28.50;99.90;;;;;;4888323;29;20420;-74
2022/05/18 14:28:07;;;;;;;5.22;2.10;;;28.60;99.90;;;;;;4903022;29;20766;-74
2022/05/18 14:30:53;;;;;;;4.03;1.80;;;28.50;99.90;;;;;;4903134;29;20432;-73
2022/05/18 14:34:09;;;;;;;3.65;1.83;;;28.60;99.90;;;;;;4903273;29;20235;-74
2022/05/18 14:36:56;;;;;;;5.85;1.80;;;28.60;99.90;;;;;;4897348;29;20198;-73
2022/05/18 14:39:46;;;;;;;5.53;1.80;;;28.60;99.90;;;;;;4907495;29;20270;-74
2022/05/18 14:42:31;;;;;;;1.83;1.70;;;28.50;99.90;;;;;;4926393;29;20260;-73
2022/05/18 14:45:22;;;;;;;2.83;1.55;;;28.50;99.90;;;;;;4918615;29;20191;-74
2022/05/18 14:48:06;;;;;;;4.53;1.85;;;28.40;99.90;;;;;;4918610;29;20274;-75
2022/05/18 14:50:50;;;;;;;2.22;1.70;;;28.40;99.90;;;;;;4885558;29;20175;-74
2022/05/18 14:54:01;;;;;;;4.22;1.92;;;28.40;99.90;;;;;;4913938;29;20251;-74
2022/05/18 14:56:51;;;;;;;4.20;1.70;;;28.40;99.90;;;;;;4919025;29;20264;-75
2022/05/18 14:59:44;;;;;;;4.15;1.52;;;28.30;99.90;;;;;;4903390;29;20244;-73